Time,TemperatureF,DewpointF,PressureIn,WindDirection,WindDirectionDegrees,WindSpeedMPH,WindSpeedGustMPH,Humidity,HourlyPrecipIn,Conditions,Clouds,dailyrainin,SolarRadiationWatts/m^2,SoftwareType,DateUTC
2013-06-17 00:02:00,60.0,59.0,-100.00,SSW,209,0.0,3.0,96,0.00,,,0.02,0.000000,,2013-06-17 04:02:00,
2013-06-17 00:34:00,59.0,58.0,-100.00,SSW,202,0.0,3.0,98,0.00,,,0.02,0.000000,,2013-06-17 04:34:00,
2013-06-17 00:43:00,59.0,58.0,-100.00,SSW,202,0.0,3.0,98,0.00,,,0.02,0.000000,,2013-06-17 04:43:00,
2013-06-17 00:53:00,59.0,58.0,-100.00,SSW,202,0.0,3.0,98,0.00,,,0.02,0.000000,,2013-06-17 04:53:00,
2013-06-17 01:02:00,59.0,58.0,-100.00,SSW,202,0.0,3.0,98,0.00,,,0.02,0.000000,,2013-06-17 05:02:00,
2013-06-17 01:33:00,60.0,59.0,-100.00,ESE,112,0.0,3.0,98,0.00,,,0.02,0.000000,,2013-06-17 05:33:00,
2013-06-17 01:44:00,60.0,59.0,-100.00,ESE,112,0.0,3.0,98,0.00,,,0.02,0.000000,,2013-06-17 05:44:00,
2013-06-17 01:53:00,60.0,59.0,-100.00,ESE,112,0.0,3.0,98,0.00,,,0.02,0.000000,,2013-06-17 05:53:00,
2013-06-17 02:02:00,60.0,59.0,-100.00,ESE,112,0.0,3.0,98,0.00,,,0.02,0.000000,,2013-06-17 06:02:00,
2013-06-17 02:33:00,60.0,59.0,-100.00,NE,39,1.0,4.0,97,0.00,,,0.02,0.000000,,2013-06-17 06:33:00,
2013-06-17 02:43:00,60.0,59.0,-100.00,NE,39,1.0,4.0,97,0.00,,,0.02,0.000000,,2013-06-17 06:43:00,
2013-06-17 02:53:00,60.0,59.0,-100.00,NE,39,1.0,4.0,97,0.00,,,0.02,0.000000,,2013-06-17 06:53:00,
2013-06-17 03:02:00,60.0,59.0,-100.00,NE,39,1.0,4.0,97,0.00,,,0.02,0.000000,,2013-06-17 07:02:00,
2013-06-17 03:33:00,58.0,57.0,-100.00,South,182,0.0,3.0,98,0.00,,,0.02,0.000000,,2013-06-17 07:33:00,
2013-06-17 03:43:00,58.0,57.0,-100.00,South,182,0.0,3.0,98,0.00,,,0.02,0.000000,,2013-06-17 07:43:00,
2013-06-17 03:53:00,58.0,57.0,-100.00,South,182,0.0,3.0,98,0.00,,,0.02,0.000000,,2013-06-17 07:53:00,
2013-06-17 04:02:00,58.0,57.0,-100.00,South,182,0.0,3.0,98,0.00,,,0.02,0.000000,,2013-06-17 08:02:00,
2013-06-17 04:34:00,61.0,60.0,-100.00,SSE,149,1.0,4.0,98,0.00,,,0.02,0.000000,,2013-06-17 08:34:00,
2013-06-17 04:43:00,61.0,60.0,-100.00,SSE,149,1.0,4.0,98,0.00,,,0.02,0.000000,,2013-06-17 08:43:00,
2013-06-17 04:53:00,61.0,60.0,-100.00,SSE,149,1.0,4.0,98,0.00,,,0.02,0.000000,,2013-06-17 08:53:00,
2013-06-17 05:02:00,61.0,60.0,-100.00,SSE,149,1.0,4.0,98,0.00,,,0.02,0.000000,,2013-06-17 09:02:00,
2013-06-17 05:34:00,63.0,62.0,-100.00,SSW,200,0.0,5.0,95,0.00,,,0.02,0.000000,,2013-06-17 09:34:00,
2013-06-17 05:44:00,63.0,62.0,-100.00,SSW,200,0.0,5.0,95,0.00,,,0.02,0.000000,,2013-06-17 09:44:00,
2013-06-17 05:53:00,63.0,62.0,-100.00,SSW,200,0.0,5.0,95,0.00,,,0.02,0.000000,,2013-06-17 09:53:00,
2013-06-17 06:02:00,63.0,62.0,-100.00,SSW,200,0.0,5.0,95,0.00,,,0.02,0.000000,,2013-06-17 10:02:00,
2013-06-17 06:33:00,62.0,61.0,-100.00,SSE,157,2.0,6.0,95,0.00,,,0.02,5.000000,,2013-06-17 10:33:00,
2013-06-17 06:43:00,62.0,61.0,-100.00,SSE,157,2.0,6.0,95,0.00,,,0.02,5.000000,,2013-06-17 10:43:00,
2013-06-17 06:54:00,62.0,61.0,-100.00,SSE,157,2.0,6.0,95,0.00,,,0.02,5.000000,,2013-06-17 10:54:00,
2013-06-17 07:02:00,62.0,61.0,-100.00,SSE,157,2.0,6.0,95,0.00,,,0.02,5.000000,,2013-06-17 11:02:00,
2013-06-17 07:33:00,62.0,61.0,-100.00,SSE,162,1.0,6.0,95,0.00,,,0.02,38.000000,,2013-06-17 11:33:00,
2013-06-17 07:43:00,62.0,61.0,-100.00,SSE,162,1.0,6.0,95,0.00,,,0.02,38.000000,,2013-06-17 11:43:00,
2013-06-17 07:53:00,62.0,61.0,-100.00,SSE,162,1.0,6.0,95,0.00,,,0.02,38.000000,,2013-06-17 11:53:00,
2013-06-17 08:02:00,62.0,61.0,-100.00,SSE,162,1.0,6.0,95,0.00,,,0.02,38.000000,,2013-06-17 12:02:00,
2013-06-17 08:33:00,63.0,60.0,-100.00,South,182,2.0,8.0,89,0.00,,,0.00,41.000000,,2013-06-17 12:33:00,
2013-06-17 08:43:00,63.0,60.0,-100.00,South,182,2.0,8.0,89,0.00,,,0.00,41.000000,,2013-06-17 12:43:00,
2013-06-17 08:53:00,63.0,60.0,-100.00,South,182,2.0,8.0,89,0.00,,,0.00,41.000000,,2013-06-17 12:53:00,
2013-06-17 09:02:00,63.0,60.0,-100.00,South,182,2.0,8.0,89,0.00,,,0.00,41.000000,,2013-06-17 13:02:00,
2013-06-17 09:33:00,69.0,62.0,-100.00,SSE,158,3.0,6.0,78,0.00,,,0.00,324.000000,,2013-06-17 13:33:00,
2013-06-17 09:43:00,69.0,62.0,-100.00,SSE,158,3.0,6.0,78,0.00,,,0.00,324.000000,,2013-06-17 13:43:00,
2013-06-17 09:53:00,69.0,62.0,-100.00,SSE,158,3.0,6.0,78,0.00,,,0.00,324.000000,,2013-06-17 13:53:00,
2013-06-17 10:02:00,69.0,62.0,-100.00,SSE,158,3.0,6.0,78,0.00,,,0.00,324.000000,,2013-06-17 14:02:00,
2013-06-17 10:44:00,75.0,62.0,-100.00,South,173,4.0,9.0,65,0.00,,,0.00,701.000000,,2013-06-17 14:44:00,
2013-06-17 10:54:00,75.0,62.0,-100.00,South,173,4.0,9.0,65,0.00,,,0.00,701.000000,,2013-06-17 14:54:00,
2013-06-17 11:02:00,75.0,62.0,-100.00,South,173,4.0,9.0,65,0.00,,,0.00,701.000000,,2013-06-17 15:02:00,
2013-06-17 11:33:00,77.0,59.0,-100.00,NNE,17,4.0,12.0,53,0.00,,,0.00,827.000000,,2013-06-17 15:33:00,
2013-06-17 11:43:00,77.0,59.0,-100.00,NNE,17,4.0,12.0,53,0.00,,,0.00,827.000000,,2013-06-17 15:43:00,
2013-06-17 11:53:00,77.0,59.0,-100.00,NNE,17,4.0,12.0,53,0.00,,,0.00,827.000000,,2013-06-17 15:53:00,
2013-06-17 12:02:00,77.0,59.0,-100.00,NNE,17,4.0,12.0,53,0.00,,,0.00,827.000000,,2013-06-17 16:02:00,
2013-06-17 12:33:00,78.0,57.0,-100.00,NNW,329,5.0,16.0,48,0.00,,,-99.99,877.000000,,2013-06-17 16:33:00,
2013-06-17 12:43:00,78.0,57.0,-100.00,NNW,329,5.0,16.0,48,0.00,,,-99.99,877.000000,,2013-06-17 16:43:00,
2013-06-17 12:54:00,78.0,57.0,-100.00,NNW,329,5.0,16.0,48,0.00,,,-99.99,877.000000,,2013-06-17 16:54:00,
2013-06-17 13:02:00,78.0,57.0,-100.00,NNW,329,5.0,16.0,48,0.00,,,-99.99,877.000000,,2013-06-17 17:02:00,
2013-06-17 13:33:00,77.0,57.0,-100.00,NNW,339,5.0,11.0,51,0.00,,,0.00,738.000000,,2013-06-17 17:33:00,
2013-06-17 13:43:00,77.0,57.0,-100.00,NNW,339,5.0,11.0,51,0.00,,,0.00,738.000000,,2013-06-17 17:43:00,
2013-06-17 13:52:00,77.0,57.0,-100.00,NNW,339,5.0,11.0,51,0.00,,,0.00,738.000000,,2013-06-17 17:52:00,
2013-06-17 14:02:00,77.0,57.0,-100.00,NNW,339,5.0,11.0,51,0.00,,,0.00,738.000000,,2013-06-17 18:02:00,
2013-06-17 14:33:00,81.0,59.0,-100.00,NW,307,4.0,16.0,48,0.00,,,0.00,808.000000,,2013-06-17 18:33:00,
2013-06-17 14:43:00,81.0,59.0,-100.00,NW,307,4.0,16.0,48,0.00,,,0.00,808.000000,,2013-06-17 18:43:00,
2013-06-17 14:53:00,81.0,59.0,-100.00,NW,307,4.0,16.0,48,0.00,,,0.00,808.000000,,2013-06-17 18:53:00,
2013-06-17 15:02:00,81.0,59.0,-100.00,NW,307,4.0,16.0,48,0.00,,,0.00,808.000000,,2013-06-17 19:02:00,
2013-06-17 15:33:00,80.0,57.0,-100.00,NNW,328,7.0,17.0,46,0.00,,,0.00,1033.000000,,2013-06-17 19:33:00,
2013-06-17 15:43:00,80.0,57.0,-100.00,NNW,328,7.0,17.0,46,0.00,,,0.00,1033.000000,,2013-06-17 19:43:00,
2013-06-17 15:54:00,80.0,57.0,-100.00,NNW,328,7.0,17.0,46,0.00,,,0.00,1033.000000,,2013-06-17 19:54:00,
2013-06-17 16:02:00,80.0,57.0,-100.00,NNW,328,7.0,17.0,46,0.00,,,0.00,1033.000000,,2013-06-17 20:02:00,
2013-06-17 16:34:00,79.0,56.0,-100.00,NW,314,4.0,18.0,46,0.00,,,0.00,819.000000,,2013-06-17 20:34:00,
2013-06-17 16:43:00,79.0,56.0,-100.00,NW,314,4.0,18.0,46,0.00,,,0.00,819.000000,,2013-06-17 20:43:00,
2013-06-17 16:52:00,79.0,56.0,-100.00,NW,314,4.0,18.0,46,0.00,,,0.00,819.000000,,2013-06-17 20:52:00,
2013-06-17 17:02:00,79.0,56.0,-100.00,NW,314,4.0,18.0,46,0.00,,,0.00,819.000000,,2013-06-17 21:02:00,
2013-06-17 18:54:00,81.0,57.0,-100.00,NW,306,3.0,13.0,44,-99.99,,,0.00,585.000000,,2013-06-17 22:54:00,
2013-06-17 19:02:00,81.0,57.0,-100.00,NW,306,3.0,13.0,44,-99.99,,,0.00,585.000000,,2013-06-17 23:02:00,
2013-06-17 19:33:00,78.0,56.0,-100.00,NNW,344,4.0,10.0,47,0.00,,,0.00,379.000000,,2013-06-17 23:33:00,
2013-06-17 19:43:00,78.0,56.0,-100.00,NNW,344,4.0,10.0,47,0.00,,,0.00,379.000000,,2013-06-17 23:43:00,
2013-06-17 19:53:00,78.0,56.0,-100.00,NNW,344,4.0,10.0,47,0.00,,,0.00,379.000000,,2013-06-17 23:53:00,
2013-06-17 20:02:00,78.0,56.0,-100.00,NNW,344,4.0,10.0,47,0.00,,,0.00,379.000000,,2013-06-18 00:02:00,
2013-06-17 20:33:00,73.0,57.0,-100.00,North,359,2.0,6.0,57,0.00,,,0.00,134.000000,,2013-06-18 00:33:00,
2013-06-17 20:43:00,73.0,57.0,-100.00,North,359,2.0,6.0,57,0.00,,,0.00,134.000000,,2013-06-18 00:43:00,
2013-06-17 20:52:00,73.0,57.0,-100.00,North,359,2.0,6.0,57,0.00,,,0.00,134.000000,,2013-06-18 00:52:00,
2013-06-17 21:01:00,73.0,57.0,-100.00,North,359,2.0,6.0,57,0.00,,,0.00,134.000000,,2013-06-18 01:01:00,
2013-06-17 21:44:00,65.0,57.0,-100.00,South,180,2.0,5.0,76,0.00,,,0.00,12.000000,,2013-06-18 01:44:00,
2013-06-17 21:53:00,65.0,57.0,-100.00,South,180,2.0,5.0,76,0.00,,,0.00,12.000000,,2013-06-18 01:53:00,
2013-06-17 22:02:00,65.0,57.0,-100.00,South,180,2.0,5.0,76,0.00,,,0.00,12.000000,,2013-06-18 02:02:00,
2013-06-17 22:43:00,65.0,59.0,-100.00,ESE,104,2.0,4.0,81,0.00,,,0.00,0.000000,,2013-06-18 02:43:00,
2013-06-17 22:53:00,65.0,59.0,-100.00,ESE,104,2.0,4.0,81,0.00,,,0.00,0.000000,,2013-06-18 02:53:00,
2013-06-17 23:02:00,65.0,59.0,-100.00,ESE,104,2.0,4.0,81,0.00,,,0.00,0.000000,,2013-06-18 03:02:00,
2013-06-17 23:34:00,62.0,59.0,-100.00,SSW,210,3.0,4.0,89,0.00,,,0.00,0.000000,,2013-06-18 03:34:00,
2013-06-17 23:43:00,62.0,59.0,-100.00,SSW,210,3.0,4.0,89,0.00,,,0.00,0.000000,,2013-06-18 03:43:00,
2013-06-17 23:53:00,62.0,59.0,-100.00,SSW,210,3.0,4.0,89,0.00,,,0.00,0.000000,,2013-06-18 03:53:00,